Time;durP1;ratioP1;P1;durP2;ratioP2;P2;SDS_P1;SDS_P2;PMS_P1;PMS_P2;Temp;Humidity;BMP_temperature;BMP_pressure;BME280_temperature;BME280_humidity;BME280_pressure;Samples;Min_cycle;Max_cycle;Signal;HPM_P1;HPM_P2
2023/10/09 00:01:44;;;;;;;;;;;;;;;25.92;19.89;99031.44;5016954;28;20331;-89
2023/10/09 00:04:11;;;;;;;;;;;;;;;26.02;19.28;99027.69;5016536;28;20027;-88
2023/10/09 00:06:37;;;;;;;;;;;;;;;25.97;19.86;99036.59;5008269;28;19921;-89
2023/10/09 00:12:00;;;;;;;;;;;;;;;25.82;19.46;99021.94;4996287;28;20081;-88
2023/10/09 00:14:30;;;;;;;;;;;;;;;25.63;19.73;99030.22;5015708;28;19941;-88
2023/10/09 00:17:17;;;;;;;;;;;;;;;25.63;19.46;99019.78;5020126;28;19933;-88
2023/10/09 00:19:51;;;;;;;;;;;;;;;25.51;19.67;99019.56;5010878;28;19936;-89
2023/10/09 00:24:50;;;;;;;;;;;;;;;25.72;19.65;99017.22;5012198;28;20365;-88
2023/10/09 00:27:16;;;;;;;;;;;;;;;25.83;19.55;99020.72;5014746;28;19925;-89
2023/10/09 00:29:44;;;;;;;;;;;;;;;25.97;19.46;99016.91;5011929;28;19930;-89
2023/10/09 00:32:22;;;;;;;;;;;;;;;26.02;19.06;99025.63;5021528;28;19966;-89
2023/10/09 00:34:51;;;;;;;;;;;;;;;26.05;19.02;99021.97;5016950;28;19925;-89
2023/10/09 00:37:22;;;;;;;;;;;;;;;26.09;19.16;99007.88;5014344;28;19932;-89
2023/10/09 00:39:58;;;;;;;;;;;;;;;26.15;19.20;98999.75;5009604;28;19943;-88
2023/10/09 00:42:32;;;;;;;;;;;;;;;26.05;19.05;98999.47;5006891;28;19922;-88
2023/10/09 00:45:08;;;;;;;;;;;;;;;25.89;18.93;98985.25;5014039;28;19922;-88
2023/10/09 00:47:34;;;;;;;;;;;;;;;25.20;19.54;98991.38;5011749;28;19929;-88
2023/10/09 00:50:46;;;;;;;;;;;;;;;24.94;19.99;98992.09;5014331;28;19921;-89
2023/10/09 00:53:02;;;;;;;;;;;;;;;25.28;19.69;98983.63;5014366;28;19926;-88
2023/10/09 00:55:44;;;;;;;;;;;;;;;25.41;19.19;98979.06;5004282;28;19930;-88
2023/10/09 00:58:14;;;;;;;;;;;;;;;25.18;19.59;98978.97;5010864;28;19928;-88
2023/10/09 01:03:19;;;;;;;;;;;;;;;24.94;19.55;98955.56;5010260;28;20026;-88
2023/10/09 01:06:33;;;;;;;;;;;;;;;24.82;19.56;98944.84;5015694;28;19925;-89
2023/10/09 01:11:18;;;;;;;;;;;;;;;24.82;20.61;98925.19;5007998;28;19922;-89
2023/10/09 01:16:17;;;;;;;;;;;;;;;25.10;20.31;98919.22;5008152;28;19922;-89
2023/10/09 01:18:44;;;;;;;;;;;;;;;25.22;19.79;98926.31;5012642;28;19928;-89
2023/10/09 01:21:14;;;;;;;;;;;;;;;25.10;20.40;98922.03;5002196;28;20270;-89
2023/10/09 01:23:58;;;;;;;;;;;;;;;25.13;20.17;98912.78;5008365;28;19944;-89
2023/10/09 01:26:28;;;;;;;;;;;;;;;25.34;19.66;98917.31;5002388;28;19921;-88
2023/10/09 01:28:57;;;;;;;;;;;;;;;25.53;19.55;98916.69;5015132;28;20073;-88
2023/10/09 01:31:26;;;;;;;;;;;;;;;25.55;19.53;98916.25;5014660;28;19925;-88
2023/10/09 01:33:59;;;;;;;;;;;;;;;25.28;19.70;98899.31;5013866;28;19926;-88
2023/10/09 01:36:31;;;;;;;;;;;;;;;25.10;19.74;98890.31;5015219;28;19922;-88
2023/10/09 01:42:00;;;;;;;;;;;;;;;25.24;20.00;98919.06;5011173;28;20000;-88
2023/10/09 01:44:30;;;;;;;;;;;;;;;25.33;19.47;98910.09;5010012;28;19933;-89
2023/10/09 01:46:58;;;;;;;;;;;;;;;25.31;19.42;98920.97;4997918;28;20073;-89
2023/10/09 01:49:31;;;;;;;;;;;;;;;25.32;19.47;98920.53;5012678;28;19931;-88
2023/10/09 01:52:03;;;;;;;;;;;;;;;25.50;19.68;98914.72;5012683;28;19989;-88
2023/10/09 01:54:39;;;;;;;;;;;;;;;25.82;19.15;98914.22;5000955;28;19928;-88
2023/10/09 01:57:09;;;;;;;;;;;;;;;25.90;19.05;98910.06;5008603;28;20456;-88
2023/10/09 01:59:38;;;;;;;;;;;;;;;25.80;19.05;98897.78;5009386;28;19926;-88
2023/10/09 02:02:14;;;;;;;;;;;;;;;25.70;19.25;98906.34;5008020;28;19928;-88
2023/10/09 02:04:43;;;;;;;;;;;;;;;25.87;19.17;98910.91;5007251;28;19930;-89
2023/10/09 02:07:09;;;;;;;;;;;;;;;25.95;19.12;98926.47;5011963;28;19922;-88
2023/10/09 02:09:35;;;;;;;;;;;;;;;26.00;19.18;98926.78;5012823;28;20072;-89
2023/10/09 02:12:01;;;;;;;;;;;;;;;25.92;19.30;98916.88;5009383;28;20019;-88
2023/10/09 02:14:28;;;;;;;;;;;;;;;26.06;19.00;98913.03;5013630;28;20381;-88
2023/10/09 02:17:02;;;;;;;;;;;;;;;26.11;19.33;98917.41;5008731;28;19932;-89
2023/10/09 02:19:31;;;;;;;;;;;;;;;25.48;19.72;98902.28;5014232;28;19918;-91
2023/10/09 02:21:57;;;;;;;;;;;;;;;25.23;19.83;98903.38;5012459;28;19939;-91
2023/10/09 02:24:49;;;;;;;;;;;;;;;25.01;19.99;98896.47;5012373;28;19925;-91
2023/10/09 02:27:19;;;;;;;;;;;;;;;25.31;20.20;98888.03;5006803;28;19925;-89
2023/10/09 02:29:47;;;;;;;;;;;;;;;25.53;19.76;98880.13;5013443;28;20015;-89
2023/10/09 02:32:14;;;;;;;;;;;;;;;25.38;19.91;98885.13;5014010;28;19953;-88
2023/10/09 02:34:41;;;;;;;;;;;;;;;25.52;19.53;98883.34;5014162;28;20316;-88
2023/10/09 02:37:13;;;;;;;;;;;;;;;25.80;19.56;98863.22;5014209;28;19925;-89
2023/10/09 02:39:48;;;;;;;;;;;;;;;25.53;19.66;98860.44;4998594;28;19937;-90
2023/10/09 02:44:46;;;;;;;;;;;;;;;25.18;20.02;98878.56;5009152;28;20396;-89
2023/10/09 02:47:18;;;;;;;;;;;;;;;25.43;20.08;98861.34;5012286;28;19928;-89
2023/10/09 02:49:43;;;;;;;;;;;;;;;25.33;20.13;98856.69;5013153;28;19972;-89
2023/10/09 02:52:17;;;;;;;;;;;;;;;25.04;20.60;98870.31;5011411;28;19961;-88
2023/10/09 02:54:46;;;;;;;;;;;;;;;25.37;20.45;98863.03;5004802;28;20012;-89
2023/10/09 02:57:21;;;;;;;;;;;;;;;25.62;20.29;98869.13;5004332;28;19928;-88
2023/10/09 02:59:51;;;;;;;;;;;;;;;25.85;20.00;98873.97;5012537;28;20352;-89
2023/10/09 03:02:18;;;;;;;;;;;;;;;25.91;19.82;98869.44;5009143;28;19925;-88
2023/10/09 03:04:44;;;;;;;;;;;;;;;26.13;19.67;98864.28;5015087;28;19926;-89
2023/10/09 03:07:11;;;;;;;;;;;;;;;26.27;19.65;98859.19;5013794;28;19968;-88
2023/10/09 03:09:37;;;;;;;;;;;;;;;26.33;19.68;98851.81;5007292;28;20477;-89
2023/10/09 03:12:05;;;;;;;;;;;;;;;25.83;19.98;98851.91;5007695;28;19962;-89
2023/10/09 03:14:35;;;;;;;;;;;;;;;25.41;20.56;98850.50;5013029;28;19966;-89
2023/10/09 03:17:01;;;;;;;;;;;;;;;25.55;20.67;98845.94;5006042;28;19953;-89
2023/10/09 03:19:28;;;;;;;;;;;;;;;25.98;20.00;98841.19;4999049;28;19929;-89
2023/10/09 03:21:58;;;;;;;;;;;;;;;26.29;20.03;98867.19;5013755;28;19925;-89
2023/10/09 03:24:27;;;;;;;;;;;;;;;26.26;19.87;98856.78;5004381;28;19921;-88
2023/10/09 03:26:55;;;;;;;;;;;;;;;26.40;19.98;98845.25;5007008;28;19922;-91
2023/10/09 03:29:22;;;;;;;;;;;;;;;26.64;19.59;98847.59;5011002;28;19937;-91
2023/10/09 03:31:50;;;;;;;;;;;;;;;26.61;19.60;98842.03;4999586;28;20020;-93
2023/10/09 03:34:16;;;;;;;;;;;;;;;25.94;20.46;98854.53;5012594;28;19956;-92
2023/10/09 03:36:43;;;;;;;;;;;;;;;26.02;20.11;98870.06;5010371;28;19929;-92
2023/10/09 03:40:17;;;;;;;;;;;;;;;26.15;20.23;98870.28;5014223;28;20034;-92
2023/10/09 03:42:05;;;;;;;;;;;;;;;26.46;20.29;98837.91;5012551;28;19921;-92
2023/10/09 03:44:33;;;;;;;;;;;;;;;26.43;19.78;98855.66;5012835;28;19973;-92
2023/10/09 03:47:00;;;;;;;;;;;;;;;25.93;20.10;98850.91;5012360;28;20381;-92
2023/10/09 03:49:26;;;;;;;;;;;;;;;25.85;20.69;98835.38;5005277;28;19997;-92
2023/10/09 03:51:52;;;;;;;;;;;;;;;26.05;20.60;98818.53;5010862;28;19925;-92
2023/10/09 03:54:22;;;;;;;;;;;;;;;26.04;20.35;98802.91;5005387;28;19921;-92
2023/10/09 03:56:54;;;;;;;;;;;;;;;25.56;20.74;98814.56;5002552;28;19929;-92
2023/10/09 03:59:21;;;;;;;;;;;;;;;25.68;20.65;98819.59;5006399;28;20000;-91
2023/10/09 04:01:48;;;;;;;;;;;;;;;25.80;20.56;98819.00;5009503;28;19943;-92
2023/10/09 04:04:14;;;;;;;;;;;;;;;26.17;20.14;98798.25;5009949;28;19933;-92
2023/10/09 04:06:41;;;;;;;;;;;;;;;26.21;20.41;98790.53;5008434;28;19922;-92
2023/10/09 04:09:35;;;;;;;;;;;;;;;26.39;20.25;98778.94;5012421;28;19932;-92
2023/10/09 04:17:33;;;;;;;;;;;;;;;25.79;21.00;98763.94;5011701;28;19976;-91
2023/10/09 04:22:51;;;;;;;;;;;;;;;25.17;21.42;98766.56;5008335;28;19936;-91
2023/10/09 04:25:25;;;;;;;;;;;;;;;25.38;21.41;98769.84;5021982;28;19921;-91
2023/10/09 04:28:03;;;;;;;;;;;;;;;25.89;21.10;98770.59;5010861;28;19937;-91
2023/10/09 04:30:29;;;;;;;;;;;;;;;26.13;21.04;98760.13;5010348;28;19952;-90
2023/10/09 04:32:59;;;;;;;;;;;;;;;26.38;20.75;98764.03;5013052;28;20385;-91
2023/10/09 04:35:29;;;;;;;;;;;;;;;26.62;20.35;98764.75;5004879;28;19922;-91
2023/10/09 04:38:05;;;;;;;;;;;;;;;26.71;20.21;98760.13;5009612;28;20281;-91
2023/10/09 04:43:20;;;;;;;;;;;;;;;26.85;20.53;98746.97;4998776;28;19922;-88
2023/10/09 04:46:12;;;;;;;;;;;;;;;26.54;20.87;98737.97;5008391;28;19928;-85
2023/10/09 04:48:38;;;;;;;;;;;;;;;26.35;21.07;98733.16;5011181;28;20103;-88
2023/10/09 04:51:20;;;;;;;;;;;;;;;26.40;20.80;98727.00;5022654;28;19925;-90
2023/10/09 04:53:50;;;;;;;;;;;;;;;26.63;20.84;98722.06;5005660;28;19933;-92
2023/10/09 04:56:16;;;;;;;;;;;;;;;26.99;20.22;98715.63;5009332;28;20424;-92
2023/10/09 04:58:44;;;;;;;;;;;;;;;27.19;20.25;98719.19;5016234;28;20385;-91
2023/10/09 05:01:14;;;;;;;;;;;;;;;27.29;20.34;98727.38;5015959;28;19967;-91
2023/10/09 05:06:21;;;;;;;;;;;;;;;26.85;20.99;98718.78;5016081;28;19922;-89
2023/10/09 05:08:48;;;;;;;;;;;;;;;26.93;20.80;98714.59;5014768;28;19924;-89
2023/10/09 05:11:27;;;;;;;;;;;;;;;27.01;20.61;98718.81;5014227;28;19918;-89
2023/10/09 05:14:11;;;;;;;;;;;;;;;26.94;20.66;98710.53;5016101;28;19924;-89
2023/10/09 05:16:37;;;;;;;;;;;;;;;27.08;20.70;98715.81;5016056;28;19922;-89
2023/10/09 05:19:06;;;;;;;;;;;;;;;27.34;20.38;98709.94;5015869;28;19943;-89
2023/10/09 05:21:44;;;;;;;;;;;;;;;27.40;20.68;98707.38;5016231;28;20290;-89
2023/10/09 05:29:19;;;;;;;;;;;;;;;26.38;21.79;98690.03;5016207;28;19921;-89
2023/10/09 05:34:34;;;;;;;;;;;;;;;26.56;21.85;98688.41;5015456;28;19934;-89
2023/10/09 05:40:22;;;;;;;;;;;;;;;26.65;21.46;98682.97;5000171;28;19924;-89
2023/10/09 05:42:45;;;;;;;;;;;;;;;26.36;21.78;98678.41;5006083;28;19925;-89
2023/10/09 05:47:54;;;;;;;;;;;;;;;26.69;21.29;98661.16;5014247;28;20449;-89
2023/10/09 06:02:16;;;;;;;;;;;;;;;26.97;21.38;98650.47;5003421;28;20390;-90
2023/10/09 06:03:54;;;;;;;;;;;;;;;26.91;21.38;98632.50;5013687;28;20012;-89
2023/10/09 06:06:33;;;;;;;;;;;;;;;26.45;21.72;98617.47;5010212;28;20312;-89
2023/10/09 06:11:49;;;;;;;;;;;;;;;25.96;22.37;98616.50;5006458;28;19922;-89
2023/10/09 06:14:24;;;;;;;;;;;;;;;25.78;22.67;98616.09;5014717;28;20322;-88
2023/10/09 06:19:28;;;;;;;;;;;;;;;25.79;23.24;98625.31;5011416;28;19945;-89
2023/10/09 06:32:57;;;;;;;;;;;;;;;27.65;21.04;98664.44;5030878;28;20418;-89
2023/10/09 06:35:35;;;;;;;;;;;;;;;27.78;21.32;98663.25;5011821;28;20007;-89
2023/10/09 06:51:40;;;;;;;;;;;;;;;27.53;21.07;98690.56;5012555;28;19924;-88
2023/10/09 06:54:09;;;;;;;;;;;;;;;27.86;20.64;98692.88;5013969;28;19967;-88
2023/10/09 06:59:24;;;;;;;;;;;;;;;28.39;20.75;98684.91;5013695;28;19949;-87
2023/10/09 07:07:02;;;;;;;;;;;;;;;28.51;20.54;98679.31;5013665;28;20000;-88
2023/10/09 07:10:28;;;;;;;;;;;;;;;28.41;20.96;98688.88;5013797;28;19924;-88
2023/10/09 07:12:25;;;;;;;;;;;;;;;28.48;21.01;98693.53;5012457;28;19917;-88
2023/10/09 07:15:01;;;;;;;;;;;;;;;28.10;21.11;98703.94;5013464;28;19922;-88
2023/10/09 07:22:53;;;;;;;;;;;;;;;28.08;21.24;98703.59;5013481;28;19929;-88
2023/10/09 07:28:18;;;;;;;;;;;;;;;28.28;21.47;98701.41;5013463;28;19971;-88
2023/10/09 07:30:45;;;;;;;;;;;;;;;28.20;21.18;98695.16;5013730;28;19972;-88
2023/10/09 07:38:11;;;;;;;;;;;;;;;27.93;21.77;98686.22;5014119;28;20330;-88
2023/10/09 07:43:45;;;;;;;;;;;;;;;27.17;22.51;98682.16;5013813;28;19923;-89
2023/10/09 07:46:32;;;;;;;;;;;;;;;27.17;22.62;98685.00;5012256;28;19914;-90
2023/10/09 07:49:08;;;;;;;;;;;;;;;27.07;22.58;98698.09;5013611;28;19957;-90
2023/10/09 07:51:35;;;;;;;;;;;;;;;27.12;22.84;98689.13;5013348;28;19917;-90
2023/10/09 07:54:07;;;;;;;;;;;;;;;27.40;22.33;98691.25;5014103;28;19917;-89
2023/10/09 07:56:41;;;;;;;;;;;;;;;27.61;22.41;98672.97;5012660;28;19924;-90
2023/10/09 07:59:10;;;;;;;;;;;;;;;27.66;21.89;98666.81;5011319;28;20377;-89
2023/10/09 08:01:37;;;;;;;;;;;;;;;27.68;22.66;98666.38;5011686;28;19948;-89
2023/10/09 08:04:20;;;;;;;;;;;;;;;27.56;22.25;98661.47;5013886;28;20008;-89
2023/10/09 08:06:47;;;;;;;;;;;;;;;27.48;22.80;98666.50;5015850;28;19917;-90
2023/10/09 08:20:12;;;;;;;;;;;;;;;28.40;21.72;98669.56;4993511;28;19921;-91
2023/10/09 08:22:42;;;;;;;;;;;;;;;28.53;21.97;98654.22;4995453;28;20337;-90
2023/10/09 08:25:25;;;;;;;;;;;;;;;28.79;22.31;98652.22;4996334;28;19924;-91
2023/10/09 08:27:55;;;;;;;;;;;;;;;28.93;21.71;98634.78;5010331;28;19921;-90
2023/10/09 08:33:00;;;;;;;;;;;;;;;28.75;21.64;98629.69;5001713;28;19926;-90
2023/10/09 08:35:32;;;;;;;;;;;;;;;28.57;22.08;98625.81;5003559;28;19926;-90
2023/10/09 08:38:00;;;;;;;;;;;;;;;28.42;22.44;98625.50;4995700;28;19917;-90
2023/10/09 08:40:33;;;;;;;;;;;;;;;28.24;23.35;98616.00;4996963;28;19919;-90
2023/10/09 08:43:08;;;;;;;;;;;;;;;28.34;22.06;98612.03;4997159;28;19922;-90
2023/10/09 08:45:41;;;;;;;;;;;;;;;28.38;23.07;98605.03;5015121;28;19931;-90
2023/10/09 08:48:08;;;;;;;;;;;;;;;28.54;22.82;98590.78;5016551;28;20388;-90
2023/10/09 08:50:35;;;;;;;;;;;;;;;28.92;22.76;98584.34;5008099;28;19929;-90
2023/10/09 08:53:03;;;;;;;;;;;;;;;28.90;22.98;98581.97;5016493;28;19914;-90
2023/10/09 08:55:29;;;;;;;;;;;;;;;29.04;22.93;98573.00;5015816;28;19928;-90
2023/10/09 08:57:57;;;;;;;;;;;;;;;29.05;23.23;98573.81;5016020;28;19948;-91
2023/10/09 09:00:23;;;;;;;;;;;;;;;28.89;22.14;98559.81;5013585;28;19928;-91
2023/10/09 09:02:50;;;;;;;;;;;;;;;28.67;23.18;98554.09;5022157;28;19925;-90
2023/10/09 09:05:17;;;;;;;;;;;;;;;28.82;22.42;98551.59;5030762;28;19921;-90
2023/10/09 09:07:43;;;;;;;;;;;;;;;28.12;22.97;98541.31;5014992;28;19944;-90
2023/10/09 09:10:21;;;;;;;;;;;;;;;28.43;23.72;98533.84;5016310;28;20403;-91
2023/10/09 09:12:53;;;;;;;;;;;;;;;28.41;23.18;98522.22;5014893;28;19944;-90
2023/10/09 09:15:26;;;;;;;;;;;;;;;27.89;24.06;98527.50;5014657;28;20297;-90
2023/10/09 09:18:02;;;;;;;;;;;;;;;28.02;23.56;98526.28;5013948;28;20064;-91
2023/10/09 09:20:34;;;;;;;;;;;;;;;27.63;23.90;98517.38;5014110;28;19936;-90
2023/10/09 09:23:04;;;;;;;;;;;;;;;27.57;23.07;98513.53;5014631;28;20308;-89
2023/10/09 09:25:40;;;;;;;;;;;;;;;27.60;23.38;98510.59;5015994;28;19918;-90
2023/10/09 09:28:12;;;;;;;;;;;;;;;27.46;23.44;98499.75;5015037;28;19963;-89
2023/10/09 09:30:40;;;;;;;;;;;;;;;27.79;23.76;98512.47;5013768;28;19921;-89
2023/10/09 09:33:43;;;;;;;;;;;;;;;27.88;23.08;98512.59;5014293;28;19933;-90
2023/10/09 09:36:11;;;;;;;;;;;;;;;27.79;22.56;98515.28;5013422;28;19921;-89
2023/10/09 09:38:42;;;;;;;;;;;;;;;27.10;23.85;98499.91;5035265;28;20335;-90
2023/10/09 09:41:08;;;;;;;;;;;;;;;27.28;23.22;98497.38;5033955;28;19917;-89
2023/10/09 09:43:40;;;;;;;;;;;;;;;27.42;23.14;98498.25;5035134;28;20403;-89
2023/10/09 09:46:08;;;;;;;;;;;;;;;27.75;22.90;98500.47;5033688;28;19917;-90
2023/10/09 09:48:39;;;;;;;;;;;;;;;27.90;22.73;98484.69;5008173;28;19928;-90
2023/10/09 09:51:08;;;;;;;;;;;;;;;27.53;23.47;98488.25;4995716;28;19918;-89
2023/10/09 09:53:34;;;;;;;;;;;;;;;28.01;22.75;98495.66;5003635;28;19948;-90
2023/10/09 09:56:03;;;;;;;;;;;;;;;27.76;22.55;98487.94;5014334;28;19929;-90
2023/10/09 09:58:42;;;;;;;;;;;;;;;27.53;23.25;98495.91;5015162;28;19924;-89
2023/10/09 10:01:24;;;;;;;;;;;;;;;26.89;23.88;98483.59;5013860;28;19972;-89
2023/10/09 10:03:59;;;;;;;;;;;;;;;26.97;24.07;98484.19;5014513;28;19922;-89
2023/10/09 10:06:28;;;;;;;;;;;;;;;26.47;24.36;98484.66;5014938;28;19918;-88
2023/10/09 10:08:54;;;;;;;;;;;;;;;25.03;26.07;98469.78;5012812;28;20336;-89
2023/10/09 10:11:40;;;;;;;;;;;;;;;25.89;25.40;98472.38;5031673;28;20422;-90
2023/10/09 10:14:10;;;;;;;;;;;;;;;26.34;24.47;98461.28;5017854;28;20369;-88
2023/10/09 10:16:55;;;;;;;;;;;;;;;26.55;23.86;98441.81;4996963;28;20356;-90
2023/10/09 10:19:21;;;;;;;;;;;;;;;27.08;24.01;98450.84;5004058;28;19921;-92
2023/10/09 10:21:54;;;;;;;;;;;;;;;26.55;24.20;98444.63;5003656;28;19922;-92
2023/10/09 10:24:30;;;;;;;;;;;;;;;26.07;24.70;98447.41;5012875;28;19922;-90
2023/10/09 10:27:27;;;;;;;;;;;;;;;26.60;24.28;98458.19;5017470;28;19917;-91
2023/10/09 10:30:12;;;;;;;;;;;;;;;26.48;23.85;98458.91;5034024;28;19917;-91
2023/10/09 10:32:53;;;;;;;;;;;;;;;26.57;24.06;98461.06;5016057;28;19922;-90
2023/10/09 10:35:36;;;;;;;;;;;;;;;26.40;24.71;98457.47;5011638;28;19971;-94
2023/10/09 10:40:46;;;;;;;;;;;;;;;25.29;26.76;98445.56;5011874;28;19928;-93
2023/10/09 10:43:47;;;;;;;;;;;;;;;25.71;25.84;98443.88;5014532;28;20404;-92
2023/10/09 10:46:24;;;;;;;;;;;;;;;26.00;25.32;98441.94;5010109;28;20324;-93
2023/10/09 10:48:58;;;;;;;;;;;;;;;26.60;25.00;98426.41;5015630;28;19975;-93
2023/10/09 10:51:39;;;;;;;;;;;;;;;27.00;24.73;98418.50;5010049;28;19928;-94
2023/10/09 10:56:51;;;;;;;;;;;;;;;26.73;24.85;98428.03;5011684;28;19944;-95
2023/10/09 10:59:25;;;;;;;;;;;;;;;27.16;24.29;98409.97;5013365;28;19964;-96
2023/10/09 11:04:39;;;;;;;;;;;;;;;25.71;26.51;98399.66;5013122;28;19939;-94
2023/10/09 11:12:39;;;;;;;;;;;;;;;26.69;24.79;98396.38;5010461;28;20267;-95
2023/10/09 11:15:07;;;;;;;;;;;;;;;26.26;25.49;98372.59;5007922;28;19922;-95
2023/10/09 11:17:35;;;;;;;;;;;;;;;26.96;24.90;98367.03;5004356;28;19921;-94
2023/10/09 11:20:22;;;;;;;;;;;;;;;27.44;24.73;98363.22;5014084;28;19929;-95
2023/10/09 11:25:49;;;;;;;;;;;;;;;26.88;24.21;98352.41;5013328;28;19921;-93
2023/10/09 11:28:29;;;;;;;;;;;;;;;27.14;24.82;98345.56;5015798;28;20484;-94
2023/10/09 11:31:06;;;;;;;;;;;;;;;27.18;24.17;98337.00;5006280;28;20361;-94
2023/10/09 11:33:51;;;;;;;;;;;;;;;27.24;24.38;98323.91;5011564;28;19932;-94
2023/10/09 11:36:21;;;;;;;;;;;;;;;26.85;24.83;98319.47;5009184;28;19925;-93
2023/10/09 11:38:49;;;;;;;;;;;;;;;26.84;24.99;98322.75;5019888;28;19926;-94
2023/10/09 11:41:19;;;;;;;;;;;;;;;27.06;24.66;98324.47;5017110;28;19917;-94
2023/10/09 11:43:51;;;;;;;;;;;;;;;26.88;24.40;98323.41;5015737;28;19923;-94
2023/10/09 11:46:37;;;;;;;;;;;;;;;26.63;25.05;98324.09;5021710;28;19948;-94
2023/10/09 11:52:03;;;;;;;;;;;;;;;27.15;24.21;98320.97;5010226;28;19925;-93
2023/10/09 11:54:31;;;;;;;;;;;;;;;27.06;24.69;98324.47;5011671;28;19940;-94
2023/10/09 11:57:00;;;;;;;;;;;;;;;26.68;24.94;98323.56;5013454;28;19932;-92
2023/10/09 11:59:41;;;;;;;;;;;;;;;26.78;24.47;98321.69;5006222;28;20094;-92
2023/10/09 12:02:14;;;;;;;;;;;;;;;26.78;24.88;98313.25;5014720;28;19957;-92
2023/10/09 12:04:42;;;;;;;;;;;;;;;26.72;24.75;98301.72;5015809;28;19933;-92
2023/10/09 12:07:10;;;;;;;;;;;;;;;27.41;24.44;98300.06;5014220;28;19928;-92
2023/10/09 12:09:37;;;;;;;;;;;;;;;27.34;24.61;98288.97;5007266;28;19929;-92
2023/10/09 12:12:04;;;;;;;;;;;;;;;26.51;24.97;98285.44;5013721;28;19922;-92
2023/10/09 12:14:33;;;;;;;;;;;;;;;26.78;25.19;98293.53;5010768;28;19928;-92
2023/10/09 12:17:05;;;;;;;;;;;;;;;26.62;25.02;98275.44;5007336;28;19933;-90
2023/10/09 12:19:34;;;;;;;;;;;;;;;26.69;25.07;98271.63;5012432;28;20369;-92
2023/10/09 12:22:03;;;;;;;;;;;;;;;26.59;24.77;98270.69;5008332;28;19922;-93
2023/10/09 12:24:30;;;;;;;;;;;;;;;26.55;24.89;98272.84;5009627;28;19937;-92
2023/10/09 12:26:56;;;;;;;;;;;;;;;26.93;24.83;98269.34;5017581;28;20373;-92
2023/10/09 12:29:23;;;;;;;;;;;;;;;27.29;23.82;98264.16;5015191;28;19917;-91
2023/10/09 12:31:57;;;;;;;;;;;;;;;27.32;24.22;98285.81;5011634;28;19921;-91
2023/10/09 12:34:26;;;;;;;;;;;;;;;27.61;23.62;98274.44;5013049;28;20012;-91
2023/10/09 12:36:55;;;;;;;;;;;;;;;27.39;23.76;98277.16;5010030;28;19921;-89
2023/10/09 12:39:22;;;;;;;;;;;;;;;26.77;24.45;98275.06;4996403;28;19940;-89
2023/10/09 12:41:48;;;;;;;;;;;;;;;27.12;24.71;98288.06;4997074;28;19924;-89
2023/10/09 12:44:14;;;;;;;;;;;;;;;27.13;23.89;98276.34;5012350;28;19917;-89
2023/10/09 12:46:41;;;;;;;;;;;;;;;27.52;24.04;98271.50;5015652;28;19924;-89
2023/10/09 12:49:07;;;;;;;;;;;;;;;26.61;24.55;98275.88;5015558;28;19928;-88
2023/10/09 12:51:33;;;;;;;;;;;;;;;26.56;24.94;98274.41;5016421;28;19917;-89
2023/10/09 12:54:01;;;;;;;;;;;;;;;27.31;24.10;98270.91;5015845;28;19925;-89
2023/10/09 12:56:32;;;;;;;;;;;;;;;27.10;24.25;98257.50;5016423;28;19928;-89
2023/10/09 12:59:04;;;;;;;;;;;;;;;26.32;25.47;98264.66;5016350;28;19924;-88
2023/10/09 13:01:42;;;;;;;;;;;;;;;27.08;24.32;98262.81;4998292;28;20275;-89
2023/10/09 13:04:17;;;;;;;;;;;;;;;27.66;23.89;98251.28;5016111;28;19929;-89
2023/10/09 13:06:44;;;;;;;;;;;;;;;27.21;23.90;98246.66;5016083;28;20337;-89
2023/10/09 13:09:13;;;;;;;;;;;;;;;26.86;24.63;98266.72;5015628;28;20007;-89
2023/10/09 13:11:43;;;;;;;;;;;;;;;26.99;24.67;98259.06;5016144;28;19948;-89
2023/10/09 13:14:21;;;;;;;;;;;;;;;26.73;24.62;98261.84;5016009;28;19924;-89
2023/10/09 13:16:50;;;;;;;;;;;;;;;26.44;25.06;98271.56;5015125;28;20384;-89
2023/10/09 13:19:17;;;;;;;;;;;;;;;26.67;24.75;98274.09;5016162;28;19918;-88
2023/10/09 13:21:43;;;;;;;;;;;;;;;27.02;24.39;98278.72;5015791;28;19917;-89
2023/10/09 13:24:13;;;;;;;;;;;;;;;27.16;24.25;98271.84;5015280;28;19979;-89
2023/10/09 13:26:40;;;;;;;;;;;;;;;26.83;24.50;98281.72;5015691;28;20443;-89
2023/10/09 13:29:11;;;;;;;;;;;;;;;26.68;25.13;98265.19;5015650;28;19922;-89
2023/10/09 13:31:38;;;;;;;;;;;;;;;26.94;24.42;98259.63;5015581;28;19921;-89
2023/10/09 13:34:06;;;;;;;;;;;;;;;27.61;23.89;98251.88;5015960;28;19926;-89
2023/10/09 13:36:33;;;;;;;;;;;;;;;27.77;24.16;98255.31;5003677;28;20441;-89
2023/10/09 13:41:48;;;;;;;;;;;;;;;27.56;23.83;98247.59;5015714;28;19921;-89
2023/10/09 13:44:14;;;;;;;;;;;;;;;27.55;24.07;98239.56;5015386;28;19923;-89
2023/10/09 13:46:41;;;;;;;;;;;;;;;27.64;23.96;98228.38;5015357;28;20000;-89
2023/10/09 13:49:12;;;;;;;;;;;;;;;27.59;24.18;98243.03;5015309;28;19926;-89
2023/10/09 13:51:44;;;;;;;;;;;;;;;27.36;24.35;98230.88;5015785;28;19968;-89
2023/10/09 13:54:10;;;;;;;;;;;;;;;27.09;24.83;98230.56;5015291;28;19917;-89
2023/10/09 13:56:39;;;;;;;;;;;;;;;26.66;25.19;98235.88;5015083;28;19960;-89
2023/10/09 13:59:10;;;;;;;;;;;;;;;26.86;24.95;98235.75;5015161;28;19918;-89
2023/10/09 14:01:38;;;;;;;;;;;;;;;27.03;24.68;98237.19;5013471;28;19921;-89
2023/10/09 14:04:08;;;;;;;;;;;;;;;27.04;25.06;98230.34;5015120;28;19922;-89
2023/10/09 14:06:34;;;;;;;;;;;;;;;27.26;24.67;98225.56;5014503;28;19922;-88
2023/10/09 14:09:05;;;;;;;;;;;;;;;26.89;24.64;98229.97;5015487;28;19925;-89
2023/10/09 14:11:31;;;;;;;;;;;;;;;26.59;25.69;98236.09;5014996;28;20377;-89
2023/10/09 14:14:00;;;;;;;;;;;;;;;27.08;24.77;98219.72;5014922;28;20384;-89
2023/10/09 14:16:27;;;;;;;;;;;;;;;27.25;24.42;98235.28;5014993;28;20333;-92
2023/10/09 14:18:56;;;;;;;;;;;;;;;27.40;24.32;98231.56;5014943;28;19917;-91
2023/10/09 14:21:25;;;;;;;;;;;;;;;27.25;24.34;98227.63;5014302;28;20008;-91
2023/10/09 14:23:56;;;;;;;;;;;;;;;27.32;24.56;98230.22;5014831;28;20021;-91
2023/10/09 14:26:25;;;;;;;;;;;;;;;27.29;24.84;98230.31;5015301;28;19925;-91
2023/10/09 14:28:52;;;;;;;;;;;;;;;27.25;24.42;98226.84;5014702;28;19917;-91
2023/10/09 14:31:26;;;;;;;;;;;;;;;27.25;24.58;98224.81;5014678;28;20301;-91
2023/10/09 14:33:55;;;;;;;;;;;;;;;27.29;24.70;98222.66;5014503;28;20309;-89
2023/10/09 14:36:22;;;;;;;;;;;;;;;27.58;24.14;98210.47;5005395;28;19925;-89
2023/10/09 14:38:52;;;;;;;;;;;;;;;28.15;23.54;98209.25;5006092;28;20408;-88
2023/10/09 14:41:21;;;;;;;;;;;;;;;28.35;23.63;98201.28;5009358;28;19986;-88
2023/10/09 14:43:48;;;;;;;;;;;;;;;28.74;23.09;98198.56;5011781;28;19930;-88
2023/10/09 14:46:14;;;;;;;;;;;;;;;28.37;23.41;98202.38;5009018;28;19975;-92
2023/10/09 14:48:43;;;;;;;;;;;;;;;28.22;23.63;98201.31;5009577;28;20394;-90
2023/10/09 14:51:13;;;;;;;;;;;;;;;27.80;24.06;98197.19;5003812;28;19921;-90
2023/10/09 14:53:40;;;;;;;;;;;;;;;27.33;24.46;98209.22;5010511;28;19922;-93
2023/10/09 14:56:09;;;;;;;;;;;;;;;27.35;24.56;98214.44;5007528;28;20011;-92
2023/10/09 14:58:35;;;;;;;;;;;;;;;27.26;24.70;98222.75;5011277;28;19921;-94
2023/10/09 15:01:09;;;;;;;;;;;;;;;27.14;24.59;98217.94;5012482;28;19921;-94
2023/10/09 15:03:37;;;;;;;;;;;;;;;27.08;25.00;98223.34;5012744;28;20408;-93
2023/10/09 15:06:03;;;;;;;;;;;;;;;26.89;25.22;98234.81;5012503;28;20362;-90
2023/10/09 15:08:29;;;;;;;;;;;;;;;26.91;25.27;98232.38;5012192;28;20361;-90
2023/10/09 15:10:56;;;;;;;;;;;;;;;26.98;25.24;98232.16;5011411;28;20411;-91
2023/10/09 15:13:28;;;;;;;;;;;;;;;27.03;24.93;98238.00;5008543;28;20011;-88
2023/10/09 15:15:55;;;;;;;;;;;;;;;26.77;25.33;98238.44;5006652;28;19917;-89
2023/10/09 15:18:21;;;;;;;;;;;;;;;26.98;25.24;98235.72;5021083;28;19960;-87
2023/10/09 15:20:48;;;;;;;;;;;;;;;27.10;25.09;98228.53;5013519;28;20012;-89
2023/10/09 15:23:14;;;;;;;;;;;;;;;27.02;24.84;98227.97;5013898;28;19921;-88
2023/10/09 15:25:44;;;;;;;;;;;;;;;26.52;25.43;98244.75;5013215;28;19924;-88
2023/10/09 15:28:11;;;;;;;;;;;;;;;25.97;26.29;98243.88;5010212;28;19921;-88
2023/10/09 15:30:38;;;;;;;;;;;;;;;26.14;26.29;98249.50;5000387;28;19925;-88
2023/10/09 15:33:05;;;;;;;;;;;;;;;26.15;26.11;98249.03;5011209;28;20381;-88
2023/10/09 15:35:33;;;;;;;;;;;;;;;26.17;26.07;98260.63;5007660;28;19928;-88